createdAt,value
2017-07-23T00:01:23.356Z,90.90
2017-07-23T00:06:10.037Z,91.00
2017-07-23T00:10:56.682Z,90.70
2017-07-23T00:15:43.288Z,90.80
2017-07-23T00:20:30.043Z,90.80
2017-07-23T00:25:16.658Z,90.90
2017-07-23T00:30:03.297Z,91.20
2017-07-23T00:34:49.920Z,92.00
2017-07-23T00:39:36.841Z,91.40
2017-07-23T00:44:23.438Z,91.20
2017-07-23T00:49:10.081Z,91.40
2017-07-23T00:53:56.775Z,91.10
2017-07-23T00:58:43.605Z,91.30
2017-07-23T01:03:30.242Z,91.50
2017-07-23T01:08:16.849Z,91.80
2017-07-23T01:13:03.470Z,91.80
2017-07-23T01:17:50.093Z,91.30
2017-07-23T01:22:37.008Z,91.90
2017-07-23T01:27:23.644Z,91.70
2017-07-23T01:32:10.366Z,91.80
2017-07-23T01:36:57.304Z,91.90
2017-07-23T01:41:43.919Z,92.40
2017-07-23T01:46:30.548Z,92.80
2017-07-23T01:51:17.299Z,93.40
2017-07-23T01:56:04.772Z,94.80
2017-07-23T02:00:51.398Z,94.70
2017-07-23T02:05:38.198Z,94.90
2017-07-23T02:10:25.171Z,95.30
2017-07-23T02:15:11.910Z,95.30
2017-07-23T02:19:58.541Z,95.20
2017-07-23T02:24:45.169Z,95.40
2017-07-23T02:29:31.866Z,95.10
2017-07-23T02:34:19.796Z,96.00
2017-07-23T02:39:06.414Z,95.70
2017-07-23T02:43:53.140Z,96.00
2017-07-23T02:48:39.871Z,96.10
2017-07-23T02:53:26.687Z,96.10
2017-07-23T02:58:20.477Z,96.40
2017-07-23T03:03:07.059Z,96.80
2017-07-23T03:07:53.684Z,96.70
2017-07-23T03:12:40.308Z,97.10
2017-07-23T03:17:27.155Z,97.00
2017-07-23T03:22:13.771Z,97.20
2017-07-23T03:27:00.806Z,97.50
2017-07-23T03:31:47.613Z,97.40
2017-07-23T03:36:34.282Z,97.30
2017-07-23T03:41:21.669Z,97.60
2017-07-23T03:46:08.833Z,97.60
2017-07-23T03:50:55.511Z,97.80
2017-07-23T03:55:42.265Z,97.30
2017-07-23T04:00:29.675Z,97.30
2017-07-23T04:05:16.306Z,98.00
2017-07-23T04:10:03.281Z,97.80
2017-07-23T04:14:50.895Z,98.00
2017-07-23T04:19:37.530Z,98.00
2017-07-23T04:24:24.140Z,98.10
2017-07-23T04:29:10.801Z,97.80
2017-07-23T04:33:58.199Z,98.40
2017-07-23T04:38:45.119Z,98.40
2017-07-23T04:43:31.896Z,98.30
2017-07-23T04:48:18.653Z,97.60
2017-07-23T04:53:05.285Z,98.10
2017-07-23T04:57:52.111Z,98.20
2017-07-23T05:02:39.158Z,97.80
2017-07-23T05:07:25.769Z,97.10
2017-07-23T05:12:12.484Z,97.60
2017-07-23T05:16:59.132Z,97.80
2017-07-23T05:21:46.651Z,97.80
2017-07-23T05:26:33.296Z,97.80
2017-07-23T05:31:20.713Z,98.00
2017-07-23T05:36:07.749Z,98.00
2017-07-23T05:40:54.355Z,97.70
2017-07-23T05:45:41.189Z,96.80
2017-07-23T05:50:27.885Z,97.30
2017-07-23T05:55:14.517Z,96.90
2017-07-23T06:00:01.750Z,96.80
2017-07-23T06:04:48.487Z,96.70
2017-07-23T06:09:35.290Z,96.90
2017-07-23T06:14:21.985Z,96.70
2017-07-23T06:19:08.703Z,97.00
2017-07-23T06:23:55.353Z,96.70
2017-07-23T06:28:42.056Z,96.60
2017-07-23T06:33:29.020Z,96.20
2017-07-23T06:38:15.617Z,94.30
2017-07-23T06:43:02.235Z,94.60
2017-07-23T06:47:48.841Z,95.10
2017-07-23T06:52:35.455Z,94.30
2017-07-23T06:57:22.097Z,95.30
2017-07-23T07:02:09.252Z,94.50
2017-07-23T07:06:55.905Z,94.10
2017-07-23T07:11:43.308Z,92.30
2017-07-23T07:16:29.940Z,92.30
2017-07-23T07:21:16.558Z,94.30
2017-07-23T07:26:03.249Z,93.60
2017-07-23T07:30:50.311Z,92.80
2017-07-23T07:35:36.931Z,92.00
2017-07-23T07:40:23.621Z,91.10
2017-07-23T07:45:10.328Z,90.00
2017-07-23T07:49:57.070Z,91.00
2017-07-23T07:54:43.808Z,92.00
2017-07-23T07:59:30.588Z,90.90
2017-07-23T08:04:17.217Z,88.80
2017-07-23T08:09:03.908Z,90.50
2017-07-23T08:13:50.527Z,88.30
2017-07-23T08:18:37.945Z,85.60
2017-07-23T08:23:24.756Z,85.60
2017-07-23T08:28:11.437Z,86.00
2017-07-23T08:32:58.403Z,86.20
2017-07-23T08:37:45.044Z,85.80
2017-07-23T08:42:32.454Z,88.00
2017-07-23T08:47:19.181Z,87.20
2017-07-23T08:52:06.120Z,83.40
2017-07-23T08:56:52.760Z,87.50
2017-07-23T09:01:40.169Z,85.20
2017-07-23T09:06:27.206Z,85.10
2017-07-23T09:11:13.828Z,85.80
2017-07-23T09:16:00.522Z,83.90
2017-07-23T09:20:47.205Z,85.50
2017-07-23T09:25:33.831Z,84.60
2017-07-23T09:30:20.538Z,81.60
2017-07-23T09:35:07.956Z,81.20
2017-07-23T09:39:54.897Z,81.10
2017-07-23T09:44:42.260Z,78.40
2017-07-23T09:49:28.928Z,78.30
2017-07-23T09:54:15.616Z,73.10
2017-07-23T09:59:02.321Z,73.00
2017-07-23T10:03:49.398Z,73.20
2017-07-23T10:08:36.934Z,71.80
2017-07-23T10:13:30.710Z,71.60
2017-07-23T10:18:17.472Z,77.20
2017-07-23T10:23:04.234Z,76.90
2017-07-23T10:27:50.878Z,74.60
2017-07-23T10:32:37.545Z,76.50
2017-07-23T10:37:24.896Z,78.80
2017-07-23T10:42:11.532Z,78.80
2017-07-23T10:46:58.343Z,76.60
2017-07-23T10:51:45.074Z,84.60
2017-07-23T10:56:31.823Z,90.60
2017-07-23T11:01:18.450Z,92.70
2017-07-23T11:06:05.175Z,92.90
2017-07-23T11:10:51.833Z,93.90
2017-07-23T11:15:39.279Z,95.10
2017-07-23T11:20:26.073Z,95.10
2017-07-23T11:25:12.942Z,93.50
2017-07-23T11:29:59.620Z,92.10
2017-07-23T11:34:46.254Z,92.90
2017-07-23T11:39:33.678Z,92.50
2017-07-23T11:44:27.325Z,92.50
2017-07-23T11:49:13.957Z,91.40
2017-07-23T11:54:00.591Z,91.40
2017-07-23T11:58:47.192Z,89.40
2017-07-23T12:03:33.849Z,84.60
2017-07-23T12:08:27.528Z,82.10
2017-07-23T12:13:14.154Z,84.40
2017-07-23T12:18:00.827Z,86.50
2017-07-23T12:22:47.471Z,83.40
2017-07-23T12:27:34.125Z,82.90
2017-07-23T12:32:21.528Z,80.90
2017-07-23T12:37:08.144Z,80.30
2017-07-23T12:41:54.766Z,76.10
2017-07-23T12:46:41.421Z,78.30
2017-07-23T12:51:28.779Z,77.20
2017-07-23T12:56:15.421Z,77.00
2017-07-23T13:01:02.045Z,79.90
2017-07-23T13:05:48.793Z,81.10
2017-07-23T13:10:35.693Z,82.50
2017-07-23T13:15:22.321Z,81.20
2017-07-23T13:20:09.097Z,79.40
2017-07-23T13:24:56.446Z,70.50
2017-07-23T13:29:43.812Z,70.90
2017-07-23T13:34:30.458Z,70.70
2017-07-23T13:39:17.295Z,68.90
2017-07-23T13:44:05.519Z,72.60
2017-07-23T13:48:52.364Z,72.40
2017-07-23T13:53:39.036Z,68.60
2017-07-23T13:58:25.911Z,72.20
2017-07-23T14:03:12.601Z,72.60
2017-07-23T14:07:59.305Z,73.30
2017-07-23T14:12:46.064Z,69.10
2017-07-23T14:17:39.762Z,65.90
2017-07-23T14:22:26.372Z,67.30
2017-07-23T14:27:13.105Z,67.50
2017-07-23T14:31:59.737Z,67.90
2017-07-23T14:36:46.380Z,67.20
2017-07-23T14:41:33.054Z,66.50
2017-07-23T14:46:19.698Z,66.50
2017-07-23T14:51:06.611Z,66.60
2017-07-23T14:55:53.272Z,65.80
2017-07-23T15:00:40.713Z,66.60
2017-07-23T15:05:28.102Z,68.40
2017-07-23T15:10:14.749Z,68.30
2017-07-23T15:15:01.492Z,66.50
2017-07-23T15:19:48.100Z,67.80
2017-07-23T15:24:35.489Z,69.60
2017-07-23T15:29:22.158Z,69.00
2017-07-23T15:34:08.896Z,69.10
2017-07-23T15:38:56.086Z,71.00
2017-07-23T15:43:42.687Z,70.00
2017-07-23T15:48:29.309Z,70.30
2017-07-23T15:53:16.022Z,70.20
2017-07-23T15:58:02.671Z,71.20
2017-07-23T16:02:49.292Z,71.30
2017-07-23T16:07:35.949Z,72.40
2017-07-23T16:12:23.332Z,74.00
2017-07-23T16:17:10.011Z,74.00
2017-07-23T16:21:57.085Z,72.70
2017-07-23T16:26:43.733Z,73.70
2017-07-23T16:31:30.390Z,73.10
2017-07-23T16:36:17.074Z,75.10
2017-07-23T16:41:03.737Z,74.60
2017-07-23T16:45:50.414Z,76.60
2017-07-23T16:50:37.458Z,75.20
2017-07-23T16:55:24.854Z,76.80
2017-07-23T17:00:11.694Z,76.00
2017-07-23T17:04:58.399Z,76.70
2017-07-23T17:09:45.105Z,75.60
2017-07-23T17:14:31.781Z,77.30
2017-07-23T17:19:19.207Z,76.60
2017-07-23T17:24:06.021Z,76.90
2017-07-23T17:28:52.686Z,77.20
2017-07-23T17:33:39.393Z,77.70
2017-07-23T17:38:27.241Z,78.10
2017-07-23T17:43:14.701Z,78.60
2017-07-23T17:48:01.351Z,78.40
2017-07-23T17:52:48.095Z,80.00
2017-07-23T17:57:34.786Z,78.40
2017-07-23T18:02:21.465Z,76.20
2017-07-23T18:07:08.938Z,73.10
2017-07-23T18:11:55.655Z,73.10
2017-07-23T18:16:42.831Z,75.10
2017-07-23T18:21:29.553Z,75.90
2017-07-23T18:26:16.378Z,76.90
2017-07-23T18:31:03.114Z,74.50
2017-07-23T18:35:49.900Z,74.40
2017-07-23T18:40:36.822Z,75.10
2017-07-23T18:45:23.919Z,74.10
2017-07-23T18:50:11.397Z,73.60
2017-07-23T18:54:58.341Z,73.50
2017-07-23T18:59:45.161Z,73.50
2017-07-23T19:04:31.922Z,73.50
2017-07-23T19:09:18.845Z,73.10
2017-07-23T19:14:05.586Z,74.20
2017-07-23T19:18:53.189Z,75.30
2017-07-23T19:23:40.385Z,75.30
2017-07-23T19:28:27.432Z,76.00
2017-07-23T19:33:14.135Z,76.90
2017-07-23T19:38:01.773Z,77.10
2017-07-23T19:42:48.592Z,77.60
2017-07-23T19:47:35.370Z,82.50
2017-07-23T19:52:22.535Z,87.30
2017-07-23T19:57:09.937Z,90.40
2017-07-23T20:01:56.722Z,90.40
2017-07-23T20:06:43.427Z,91.20
2017-07-23T20:11:30.934Z,92.00
2017-07-23T20:16:17.663Z,92.00
2017-07-23T20:21:05.037Z,91.50
2017-07-23T20:25:51.765Z,91.30
2017-07-23T20:30:38.605Z,91.90
2017-07-23T20:35:25.357Z,92.30
2017-07-23T20:40:12.100Z,91.40
2017-07-23T20:44:59.014Z,91.80
2017-07-23T20:49:45.831Z,93.30
2017-07-23T20:54:32.593Z,93.00
2017-07-23T20:59:20.392Z,93.10
2017-07-23T21:04:07.050Z,93.10
2017-07-23T21:08:54.709Z,92.70
2017-07-23T21:13:41.394Z,93.00
2017-07-23T21:18:28.046Z,93.50
2017-07-23T21:23:15.502Z,92.70
2017-07-23T21:28:02.125Z,92.60
2017-07-23T21:32:48.821Z,93.00
2017-07-23T21:37:36.271Z,93.60
2017-07-23T21:42:23.259Z,93.50
2017-07-23T21:47:09.849Z,93.50
2017-07-23T21:51:56.443Z,93.80
2017-07-23T21:56:43.069Z,93.90
2017-07-23T22:01:29.694Z,94.30
2017-07-23T22:06:16.314Z,94.80
2017-07-23T22:11:02.935Z,95.10
2017-07-23T22:15:49.551Z,95.20
2017-07-23T22:20:36.208Z,95.00
2017-07-23T22:25:23.066Z,95.00
2017-07-23T22:30:10.803Z,94.50
2017-07-23T22:34:57.439Z,94.50
2017-07-23T22:39:44.073Z,94.40
2017-07-23T22:44:30.732Z,94.70
2017-07-23T22:49:17.462Z,94.90
2017-07-23T22:54:04.195Z,94.60
2017-07-23T22:58:51.536Z,94.00
2017-07-23T23:03:38.132Z,94.10
2017-07-23T23:08:24.775Z,93.80
2017-07-23T23:13:11.407Z,94.90
2017-07-23T23:17:58.025Z,94.70
2017-07-23T23:22:45.130Z,94.30
2017-07-23T23:27:31.776Z,94.80
2017-07-23T23:32:18.588Z,94.10
2017-07-23T23:37:05.245Z,94.20
2017-07-23T23:41:52.614Z,94.70
2017-07-23T23:46:39.271Z,94.70
2017-07-23T23:51:25.976Z,94.70
2017-07-23T23:56:12.925Z,94.80
